createdAt,value
2022-11-21T00:01:17.293Z,17.13
2022-11-21T00:03:45.233Z,15.57
2022-11-21T00:06:13.132Z,16.67
2022-11-21T00:08:42.337Z,14.63
2022-11-21T00:11:10.207Z,15.97
2022-11-21T00:13:38.657Z,16.57
2022-11-21T00:16:07.365Z,14.37
2022-11-21T00:18:36.157Z,14.37
2022-11-21T00:21:08.096Z,14.90
2022-11-21T00:23:36.004Z,12.53
2022-11-21T00:26:08.936Z,12.90
2022-11-21T00:28:37.428Z,13.90
2022-11-21T00:31:06.381Z,13.93
2022-11-21T00:33:36.047Z,13.13
2022-11-21T00:36:07.977Z,14.20
2022-11-21T00:38:36.069Z,12.13
2022-11-21T00:41:03.929Z,13.27
2022-11-21T00:43:33.258Z,12.67
2022-11-21T00:46:02.853Z,11.90
2022-11-21T00:48:31.250Z,12.07
2022-11-21T00:51:00.415Z,11.93
2022-11-21T00:53:28.513Z,11.17
2022-11-21T00:55:56.359Z,11.83
2022-11-21T00:58:24.232Z,11.67
2022-11-21T01:00:53.492Z,11.57
2022-11-21T01:03:21.394Z,10.97
2022-11-21T01:05:49.157Z,10.37
2022-11-21T01:08:16.996Z,11.63
2022-11-21T01:10:44.800Z,11.53
2022-11-21T01:13:12.655Z,11.77
2022-11-21T01:15:40.543Z,11.20
2022-11-21T01:18:10.182Z,12.33
2022-11-21T01:20:40.281Z,11.10
2022-11-21T01:23:08.183Z,12.20
2022-11-21T01:25:35.978Z,11.60
2022-11-21T01:28:03.967Z,12.20
2022-11-21T01:30:32.056Z,12.43
2022-11-21T01:33:00.018Z,11.77
2022-11-21T01:35:29.350Z,11.63
2022-11-21T01:37:57.165Z,12.40
2022-11-21T01:40:24.913Z,11.37
2022-11-21T01:42:58.748Z,12.60
2022-11-21T01:46:02.929Z,14.30
2022-11-21T01:48:34.193Z,12.87
2022-11-21T01:51:08.582Z,10.97
2022-11-21T01:53:37.416Z,10.77
2022-11-21T01:56:05.447Z,9.97
2022-11-21T01:58:34.583Z,10.40
2022-11-21T02:01:03.174Z,10.23
2022-11-21T02:03:33.988Z,10.07
2022-11-21T02:06:03.326Z,10.10
2022-11-21T02:08:31.259Z,9.60
2022-11-21T02:11:07.976Z,10.27
2022-11-21T02:13:35.879Z,9.57
2022-11-21T02:16:03.950Z,10.07
2022-11-21T02:18:31.813Z,9.80
2022-11-21T02:21:07.723Z,10.67
2022-11-21T02:23:42.023Z,9.97
2022-11-21T02:26:11.628Z,11.03
2022-11-21T02:28:39.583Z,11.27
2022-11-21T02:31:07.478Z,10.90
2022-11-21T02:33:35.357Z,11.10
2022-11-21T02:36:03.668Z,11.27
2022-11-21T02:38:34.032Z,11.60
2022-11-21T02:41:06.777Z,11.57
2022-11-21T02:43:38.677Z,11.90
2022-11-21T02:46:06.556Z,11.03
2022-11-21T02:48:34.866Z,11.47
2022-11-21T02:51:02.722Z,11.33
2022-11-21T02:53:30.530Z,11.20
2022-11-21T02:55:58.783Z,11.97
2022-11-21T02:58:26.743Z,12.27
2022-11-21T03:00:56.264Z,12.23
2022-11-21T03:03:24.271Z,12.00
2022-11-21T03:05:52.204Z,11.70
2022-11-21T03:08:20.056Z,13.57
2022-11-21T03:10:47.918Z,12.33
2022-11-21T03:13:15.767Z,12.60
2022-11-21T03:15:43.573Z,13.07
2022-11-21T03:18:12.722Z,11.87
2022-11-21T03:20:40.568Z,11.90
2022-11-21T03:23:08.387Z,12.90
2022-11-21T03:25:36.224Z,11.70
2022-11-21T03:28:04.243Z,12.07
2022-11-21T03:30:32.743Z,12.93
2022-11-21T03:33:00.572Z,12.70
2022-11-21T03:35:29.867Z,12.63
2022-11-21T03:37:57.699Z,13.60
2022-11-21T03:40:25.601Z,13.23
2022-11-21T03:42:53.445Z,13.80
2022-11-21T03:45:21.351Z,12.83
2022-11-21T03:47:49.163Z,13.27
2022-11-21T03:50:19.077Z,13.73
2022-11-21T03:52:48.323Z,13.50
2022-11-21T03:55:16.528Z,13.57
2022-11-21T03:57:44.348Z,12.53
2022-11-21T04:00:14.011Z,14.63
2022-11-21T04:02:41.918Z,13.97
2022-11-21T04:05:10.395Z,12.63
2022-11-21T04:07:38.345Z,13.67
2022-11-21T04:10:08.570Z,12.97
2022-11-21T04:12:36.424Z,13.73
2022-11-21T04:15:09.294Z,15.07
2022-11-21T04:17:40.062Z,14.80
2022-11-21T04:20:09.170Z,16.10
2022-11-21T04:22:37.017Z,16.10
2022-11-21T04:25:05.403Z,18.37
2022-11-21T04:27:34.656Z,16.27
2022-11-21T04:30:02.565Z,18.73
2022-11-21T04:32:30.446Z,18.63
2022-11-21T04:34:58.315Z,17.20
2022-11-21T04:37:26.156Z,17.97
2022-11-21T04:39:54.002Z,17.07
2022-11-21T04:42:21.890Z,16.17
2022-11-21T04:44:51.157Z,16.83
2022-11-21T04:47:19.072Z,17.60
2022-11-21T04:49:46.987Z,17.07
2022-11-21T04:52:15.077Z,17.67
2022-11-21T04:54:43.057Z,17.93
2022-11-21T04:57:10.856Z,18.23
2022-11-21T04:59:38.616Z,17.87
2022-11-21T05:02:07.800Z,16.73
2022-11-21T05:04:35.543Z,17.17
2022-11-21T05:07:03.441Z,17.63
2022-11-21T05:09:31.268Z,17.03
2022-11-21T05:12:16.626Z,18.00
2022-11-21T05:14:44.400Z,17.80
2022-11-21T05:17:13.585Z,17.93
2022-11-21T05:19:41.447Z,18.73
2022-11-21T05:22:09.361Z,18.80
2022-11-21T05:24:37.329Z,18.87
2022-11-21T05:27:05.276Z,17.97
2022-11-21T05:29:33.190Z,19.30
2022-11-21T05:32:01.055Z,19.10
2022-11-21T05:34:30.685Z,18.83
2022-11-21T05:36:59.223Z,19.53
2022-11-21T05:39:27.679Z,18.63
2022-11-21T05:41:59.919Z,18.87
2022-11-21T05:44:30.174Z,19.50
2022-11-21T05:46:58.680Z,17.73
2022-11-21T05:49:26.616Z,18.17
2022-11-21T05:51:55.914Z,17.33
2022-11-21T05:54:23.916Z,18.80
2022-11-21T05:56:51.739Z,17.43
2022-11-21T05:59:19.702Z,18.20
2022-11-21T06:02:04.836Z,16.87
2022-11-21T06:04:32.659Z,16.50
2022-11-21T06:07:01.972Z,15.77
2022-11-21T06:09:29.857Z,17.30
2022-11-21T06:11:57.732Z,16.23
2022-11-21T06:14:25.747Z,16.20
2022-11-21T06:16:53.739Z,15.83
2022-11-21T06:19:21.690Z,16.27
2022-11-21T06:21:49.501Z,17.93
2022-11-21T06:24:22.150Z,16.63
2022-11-21T06:26:50.343Z,17.07
2022-11-21T06:29:18.192Z,17.13
2022-11-21T06:31:46.173Z,17.40
2022-11-21T06:34:14.069Z,17.30
2022-11-21T06:36:42.102Z,18.23
2022-11-21T06:39:09.989Z,17.43
2022-11-21T06:41:39.232Z,17.17
2022-11-21T06:44:07.105Z,17.90
2022-11-21T06:46:35.057Z,18.17
2022-11-21T06:49:02.850Z,16.30
2022-11-21T06:51:30.634Z,18.47
2022-11-21T06:53:59.594Z,16.40
2022-11-21T06:56:29.045Z,17.23
2022-11-21T06:58:58.545Z,17.50
2022-11-21T07:01:26.777Z,17.60
2022-11-21T07:03:54.746Z,16.23
2022-11-21T07:06:22.555Z,16.80
2022-11-21T07:09:17.656Z,17.47
2022-11-21T07:11:41.405Z,16.10
2022-11-21T07:14:09.829Z,18.07
2022-11-21T07:16:37.809Z,17.07
2022-11-21T07:19:05.780Z,16.33
2022-11-21T07:21:33.692Z,16.77
2022-11-21T07:24:01.632Z,16.73
2022-11-21T07:26:29.639Z,16.13
2022-11-21T07:28:57.489Z,16.60
2022-11-21T07:31:26.720Z,15.83
2022-11-21T07:33:54.622Z,16.93
2022-11-21T07:36:22.484Z,17.70
2022-11-21T07:38:50.580Z,17.43
2022-11-21T07:41:18.479Z,17.63
2022-11-21T07:43:46.372Z,17.73
2022-11-21T07:46:14.219Z,16.17
2022-11-21T07:48:43.438Z,16.83
2022-11-21T07:51:11.301Z,15.80
2022-11-21T07:53:39.161Z,16.73
2022-11-21T07:56:09.480Z,16.53
2022-11-21T07:58:37.697Z,17.23
2022-11-21T08:01:06.359Z,16.97
2022-11-21T08:03:34.371Z,17.10
2022-11-21T08:06:04.678Z,15.47
2022-11-21T08:08:32.672Z,15.37
2022-11-21T08:11:00.556Z,15.00
2022-11-21T08:13:30.336Z,14.93
2022-11-21T08:15:58.220Z,14.30
2022-11-21T08:18:26.463Z,14.27
2022-11-21T08:20:54.259Z,14.20
2022-11-21T08:23:23.426Z,15.93
2022-11-21T08:25:51.877Z,14.90
2022-11-21T08:28:19.688Z,15.07
2022-11-21T08:30:47.539Z,14.87
2022-11-21T08:33:15.403Z,14.70
2022-11-21T08:35:43.256Z,17.03
2022-11-21T08:38:11.118Z,16.40
2022-11-21T08:40:41.385Z,15.53
2022-11-21T08:43:10.248Z,16.03
2022-11-21T08:45:39.242Z,16.33
2022-11-21T08:48:11.337Z,15.50
2022-11-21T08:50:39.407Z,16.80
2022-11-21T08:53:07.335Z,17.83
2022-11-21T08:55:35.191Z,16.43
2022-11-21T08:58:04.466Z,17.27
2022-11-21T09:00:32.349Z,17.33
2022-11-21T09:03:00.249Z,16.93
2022-11-21T09:05:28.142Z,17.67
2022-11-21T09:07:59.715Z,18.33
2022-11-21T09:10:29.020Z,17.77
2022-11-21T09:12:59.123Z,16.93
2022-11-21T09:15:45.696Z,17.73
2022-11-21T09:18:13.619Z,17.27
2022-11-21T09:20:43.014Z,17.37
2022-11-21T09:23:12.125Z,17.00
2022-11-21T09:25:40.262Z,17.23
2022-11-21T09:28:09.835Z,16.57
2022-11-21T09:30:39.749Z,16.63
2022-11-21T09:33:09.009Z,18.27
2022-11-21T09:35:36.996Z,15.83
2022-11-21T09:38:05.443Z,17.80
2022-11-21T09:40:35.493Z,17.27
2022-11-21T09:43:38.218Z,16.53
2022-11-21T09:46:12.154Z,16.50
2022-11-21T09:48:48.070Z,17.00
2022-11-21T09:51:18.339Z,17.40
2022-11-21T09:53:54.810Z,17.00
2022-11-21T09:56:24.059Z,17.53
2022-11-21T09:59:08.222Z,17.57
2022-11-21T10:01:37.634Z,18.00
2022-11-21T10:04:06.185Z,16.47
2022-11-21T10:06:38.893Z,17.97
2022-11-21T10:09:13.046Z,18.67
2022-11-21T10:11:58.915Z,17.47
2022-11-21T10:14:38.039Z,17.47
2022-11-21T10:17:14.452Z,18.80
2022-11-21T10:19:52.785Z,17.37
2022-11-21T10:22:30.083Z,18.00
2022-11-21T10:25:03.410Z,18.87
2022-11-21T10:27:34.459Z,17.83
2022-11-21T10:30:05.146Z,17.00
2022-11-21T10:32:37.795Z,16.70
2022-11-21T10:35:14.922Z,17.23
2022-11-21T10:37:47.991Z,16.57
2022-11-21T10:40:33.819Z,15.73
2022-11-21T10:43:26.745Z,15.63
2022-11-21T10:45:54.172Z,16.67
2022-11-21T10:48:23.410Z,16.73
2022-11-21T10:51:09.091Z,16.93
2022-11-21T10:54:07.640Z,17.67
2022-11-21T10:56:36.905Z,17.67
2022-11-21T10:59:14.672Z,17.70
2022-11-21T11:01:55.912Z,17.50
2022-11-21T11:04:29.276Z,18.53
2022-11-21T11:06:59.849Z,19.20
2022-11-21T11:09:30.500Z,18.43
2022-11-21T11:12:49.784Z,16.43
2022-11-21T11:15:22.703Z,16.53
2022-11-21T11:17:52.961Z,17.43
2022-11-21T11:20:34.552Z,17.80
2022-11-21T11:23:16.994Z,17.47
2022-11-21T11:25:48.156Z,16.53
2022-11-21T11:28:16.194Z,15.70
2022-11-21T11:30:44.282Z,15.83
2022-11-21T11:33:32.342Z,14.63
2022-11-21T11:36:11.327Z,15.87
2022-11-21T11:38:39.365Z,14.90
2022-11-21T11:41:26.075Z,15.27
2022-11-21T11:44:18.353Z,15.30
2022-11-21T11:47:08.930Z,13.93
2022-11-21T11:49:59.873Z,13.00
2022-11-21T11:52:31.334Z,14.50
2022-11-21T11:55:01.923Z,13.37
2022-11-21T11:57:31.757Z,13.67
2022-11-21T12:00:06.467Z,13.30
2022-11-21T12:02:49.031Z,13.40
2022-11-21T12:05:22.232Z,12.03
2022-11-21T12:11:07.878Z,10.88
2022-11-21T12:13:37.413Z,10.47
2022-11-21T12:16:13.162Z,9.45
2022-11-21T12:18:49.242Z,10.57
2022-11-21T12:21:18.651Z,9.85
2022-11-21T12:23:49.295Z,9.87
2022-11-21T12:26:37.523Z,10.40
2022-11-21T12:29:15.036Z,11.40
2022-11-21T12:31:54.991Z,11.93
2022-11-21T12:34:35.402Z,12.77
2022-11-21T12:37:10.222Z,12.20
2022-11-21T12:39:57.554Z,12.63
2022-11-21T12:42:47.191Z,13.17
2022-11-21T12:45:32.011Z,12.10
2022-11-21T12:48:34.676Z,12.50
2022-11-21T12:51:55.189Z,11.63
2022-11-21T12:54:46.512Z,12.40
2022-11-21T12:57:16.824Z,11.50
2022-11-21T12:59:52.718Z,12.40
2022-11-21T13:02:28.235Z,12.60
2022-11-21T13:04:57.183Z,11.23
2022-11-21T13:07:26.442Z,9.83
2022-11-21T13:09:55.275Z,9.40
2022-11-21T13:12:34.571Z,9.67
2022-11-21T13:15:09.692Z,9.70
2022-11-21T13:17:44.726Z,8.90
2022-11-21T13:20:22.689Z,8.03
2022-11-21T13:22:55.330Z,8.27
2022-11-21T13:25:47.322Z,9.53
2022-11-21T13:28:33.825Z,7.90
2022-11-21T13:31:03.543Z,7.13
2022-11-21T13:33:49.168Z,8.53
2022-11-21T13:36:38.914Z,6.90
2022-11-21T13:39:37.729Z,6.37
2022-11-21T13:42:30.642Z,6.37
2022-11-21T13:45:00.791Z,5.55
2022-11-21T13:48:15.112Z,13.77
2022-11-21T13:51:24.441Z,5.90
2022-11-21T13:54:09.867Z,4.67
2022-11-21T13:56:42.923Z,4.10
2022-11-21T13:59:30.186Z,4.73
2022-11-21T14:02:43.021Z,4.43
2022-11-21T14:05:24.665Z,4.87
2022-11-21T14:07:52.661Z,5.13
2022-11-21T14:10:32.037Z,5.97
2022-11-21T14:13:00.261Z,5.57
2022-11-21T14:15:33.682Z,5.40
2022-11-21T14:18:02.344Z,4.97
2022-11-21T14:20:35.607Z,4.73
2022-11-21T14:23:06.325Z,6.33
2022-11-21T14:25:43.844Z,4.43
2022-11-21T14:28:14.736Z,5.43
2022-11-21T14:30:44.483Z,5.00
2022-11-21T14:33:23.141Z,5.10
2022-11-21T14:35:55.625Z,5.07
2022-11-21T14:38:23.976Z,5.80
2022-11-21T14:40:52.259Z,5.10
2022-11-21T14:43:30.771Z,6.77
2022-11-21T14:45:58.889Z,5.90
2022-11-21T14:48:28.120Z,4.90
2022-11-21T14:50:58.736Z,5.70
2022-11-21T14:53:27.040Z,4.83
2022-11-21T14:56:01.069Z,4.80
2022-11-21T14:58:29.557Z,5.30
2022-11-21T15:01:04.309Z,4.67
2022-11-21T15:03:32.144Z,8.87
2022-11-21T15:06:06.239Z,17.60
2022-11-21T15:11:26.063Z,8.80
2022-11-21T15:14:15.072Z,7.50
2022-11-21T15:16:44.421Z,6.97
2022-11-21T15:19:12.421Z,5.63
2022-11-21T15:21:46.696Z,6.13
2022-11-21T15:24:19.268Z,5.90
2022-11-21T15:26:47.342Z,5.50
2022-11-21T15:29:21.147Z,5.67
2022-11-21T15:32:06.539Z,5.53
2022-11-21T15:34:36.218Z,6.13
2022-11-21T15:37:08.500Z,5.17
2022-11-21T15:39:37.877Z,5.23
2022-11-21T15:42:38.112Z,5.53
2022-11-21T15:45:23.038Z,5.10
2022-11-21T15:47:51.224Z,5.90
2022-11-21T15:50:19.552Z,5.67
2022-11-21T15:52:49.662Z,5.70
2022-11-21T15:55:20.018Z,5.77
2022-11-21T15:57:47.951Z,8.17
2022-11-21T16:00:17.283Z,7.93
2022-11-21T16:02:45.319Z,8.37
2022-11-21T16:05:13.978Z,8.53
2022-11-21T16:07:42.115Z,8.67
2022-11-21T16:10:19.759Z,8.30
2022-11-21T16:12:50.841Z,20.13
2022-11-21T16:15:19.092Z,9.83
2022-11-21T16:17:47.687Z,6.70
2022-11-21T16:20:15.892Z,6.20
2022-11-21T16:22:47.835Z,6.37
2022-11-21T16:25:17.498Z,6.20
2022-11-21T16:27:45.378Z,5.67
2022-11-21T16:30:14.047Z,5.73
2022-11-21T16:32:41.950Z,6.67
2022-11-21T16:35:10.573Z,6.53
2022-11-21T16:37:38.357Z,6.87
2022-11-21T16:40:07.513Z,7.23
2022-11-21T16:42:36.710Z,5.80
2022-11-21T16:45:05.391Z,6.10
2022-11-21T16:47:33.359Z,5.90
2022-11-21T16:50:01.191Z,5.30
2022-11-21T16:52:29.128Z,5.60
2022-11-21T16:54:57.981Z,5.37
2022-11-21T16:57:25.804Z,4.90
2022-11-21T16:59:57.682Z,5.27
2022-11-21T17:02:27.031Z,6.10
2022-11-21T17:04:54.884Z,4.50
2022-11-21T17:07:22.912Z,5.03
2022-11-21T17:09:50.787Z,4.43
2022-11-21T17:12:18.619Z,5.00
2022-11-21T17:14:48.324Z,4.53
2022-11-21T17:17:17.685Z,4.27
2022-11-21T17:19:45.787Z,3.80
2022-11-21T17:22:13.631Z,4.63
2022-11-21T17:24:41.506Z,3.90
2022-11-21T17:27:09.826Z,3.83
2022-11-21T17:29:37.648Z,4.30
2022-11-21T17:32:05.688Z,3.77
2022-11-21T17:34:35.322Z,3.53
2022-11-21T17:37:03.387Z,3.90
2022-11-21T17:39:31.795Z,14.03
2022-11-21T17:42:01.515Z,5.17
2022-11-21T17:44:29.632Z,4.40
2022-11-21T17:46:59.364Z,3.70
2022-11-21T17:49:29.939Z,3.60
2022-11-21T17:51:59.311Z,2.97
2022-11-21T17:54:27.545Z,2.97
2022-11-21T17:56:57.170Z,2.60
2022-11-21T17:59:25.162Z,3.10
2022-11-21T18:01:53.475Z,2.87
2022-11-21T18:04:21.612Z,2.60
2022-11-21T18:06:49.903Z,2.80
2022-11-21T18:09:19.213Z,3.53
2022-11-21T18:11:47.131Z,2.10
2022-11-21T18:14:15.328Z,1.97
2022-11-21T18:16:47.756Z,1.70
2022-11-21T18:19:21.041Z,2.20
2022-11-21T18:21:49.491Z,2.17
2022-11-21T18:24:17.311Z,2.70
2022-11-21T18:26:47.176Z,2.37
2022-11-21T18:32:03.008Z,2.57
2022-11-21T18:34:30.958Z,3.43
2022-11-21T18:36:58.851Z,16.90
2022-11-21T18:39:27.032Z,4.57
2022-11-21T18:41:56.457Z,3.00
2022-11-21T18:44:24.440Z,3.07
2022-11-21T18:46:52.802Z,3.27
2022-11-21T18:49:20.735Z,2.87
2022-11-21T18:51:48.906Z,2.20
2022-11-21T18:54:16.950Z,2.83
2022-11-21T18:56:44.831Z,2.60
2022-11-21T18:59:14.117Z,2.53
2022-11-21T19:01:42.131Z,2.23
2022-11-21T19:04:10.371Z,2.00
2022-11-21T19:06:38.283Z,2.03
2022-11-21T19:09:06.509Z,2.60
2022-11-21T19:11:34.342Z,1.73
2022-11-21T19:14:02.127Z,1.80
2022-11-21T19:16:34.301Z,1.80
2022-11-21T19:19:33.144Z,2.47
2022-11-21T19:21:50.808Z,2.23
2022-11-21T19:24:19.365Z,2.73
2022-11-21T19:26:50.216Z,2.00
2022-11-21T19:29:18.828Z,1.97
2022-11-21T19:31:48.135Z,2.00
2022-11-21T19:34:16.701Z,1.97
2022-11-21T19:36:45.347Z,2.30
2022-11-21T19:39:13.598Z,4.40
2022-11-21T19:41:41.554Z,5.00
2022-11-21T19:44:09.699Z,2.03
2022-11-21T19:46:38.525Z,1.63
2022-11-21T19:49:08.741Z,1.87
2022-11-21T19:51:38.441Z,2.07
2022-11-21T19:54:07.554Z,1.87
2022-11-21T19:56:36.129Z,1.80
2022-11-21T19:59:04.279Z,2.20
2022-11-21T20:01:33.691Z,1.57
2022-11-21T20:04:03.135Z,1.97
2022-11-21T20:06:34.347Z,1.60
2022-11-21T20:09:05.280Z,2.50
2022-11-21T20:11:33.534Z,2.60
2022-11-21T20:14:01.575Z,2.03
2022-11-21T20:16:30.780Z,2.43
2022-11-21T20:19:00.947Z,2.43
2022-11-21T20:21:29.497Z,2.23
2022-11-21T20:23:58.896Z,2.27
2022-11-21T20:26:27.653Z,2.30
2022-11-21T20:28:55.707Z,2.20
2022-11-21T20:31:24.736Z,2.33
2022-11-21T20:33:54.072Z,2.30
2022-11-21T20:36:23.593Z,2.57
2022-11-21T20:38:52.378Z,2.27
2022-11-21T20:41:22.478Z,2.43
2022-11-21T20:44:41.673Z,2.77
2022-11-21T20:46:38.345Z,2.83
2022-11-21T20:49:06.193Z,2.40
2022-11-21T20:53:06.258Z,2.80
2022-11-21T20:54:22.175Z,1.90
2022-11-21T20:56:51.420Z,2.93
2022-11-21T20:59:19.249Z,2.57
2022-11-21T21:01:47.225Z,2.43
2022-11-21T21:04:15.066Z,2.40
2022-11-21T21:06:42.984Z,3.50
2022-11-21T21:09:10.772Z,2.43
2022-11-21T21:11:52.213Z,2.20
2022-11-21T21:14:22.596Z,1.90
2022-11-21T21:16:50.962Z,2.20
2022-11-21T21:19:19.218Z,2.50
2022-11-21T21:21:47.126Z,2.00
2022-11-21T21:24:15.402Z,1.80
2022-11-21T21:26:45.322Z,2.30
2022-11-21T21:29:14.696Z,2.03
2022-11-21T21:31:50.128Z,2.40
2022-11-21T21:34:19.417Z,1.97
2022-11-21T21:36:47.512Z,2.07
2022-11-21T21:39:15.432Z,1.90
2022-11-21T21:41:45.782Z,1.90
2022-11-21T21:44:13.980Z,2.27
2022-11-21T21:46:43.538Z,2.07
2022-11-21T21:49:11.421Z,2.00
2022-11-21T21:51:39.946Z,2.30
2022-11-21T21:54:14.442Z,1.67
2022-11-21T21:56:42.340Z,2.20
2022-11-21T21:59:10.133Z,2.07
2022-11-21T22:01:38.145Z,2.20
2022-11-21T22:04:07.552Z,2.10
2022-11-21T22:06:36.016Z,1.87
2022-11-21T22:09:04.170Z,1.43
2022-11-21T22:11:33.936Z,2.40
2022-11-21T22:14:03.053Z,1.60
2022-11-21T22:16:31.601Z,1.60
2022-11-21T22:18:59.651Z,1.40
2022-11-21T22:21:32.458Z,1.83
2022-11-21T22:26:49.019Z,1.37
2022-11-21T22:29:17.145Z,1.43
2022-11-21T22:31:45.001Z,1.47
2022-11-21T22:34:13.619Z,1.63
2022-11-21T22:36:43.328Z,1.47
2022-11-21T22:39:11.269Z,1.30
2022-11-21T22:41:39.308Z,1.60
2022-11-21T22:44:07.369Z,1.80
2022-11-21T22:46:35.255Z,1.50
2022-11-21T22:49:03.615Z,1.20
2022-11-21T22:51:31.460Z,1.77
2022-11-21T22:54:00.804Z,1.60
2022-11-21T22:56:28.644Z,1.70
2022-11-21T22:58:56.713Z,1.17
2022-11-21T23:01:26.611Z,1.60
2022-11-21T23:03:55.508Z,1.47
2022-11-21T23:06:24.933Z,1.77
2022-11-21T23:08:53.339Z,1.77
2022-11-21T23:11:24.449Z,1.30
2022-11-21T23:13:53.451Z,1.10
2022-11-21T23:16:23.747Z,1.23
2022-11-21T23:18:53.359Z,1.20
2022-11-21T23:21:21.472Z,1.10
2022-11-21T23:23:49.329Z,1.40
2022-11-21T23:26:17.211Z,1.57
2022-11-21T23:28:46.398Z,1.30
2022-11-21T23:31:14.521Z,1.60
2022-11-21T23:33:42.353Z,1.30
2022-11-21T23:36:10.213Z,1.30
2022-11-21T23:38:38.051Z,1.10
2022-11-21T23:41:05.921Z,1.23
2022-11-21T23:43:33.787Z,1.47
2022-11-21T23:46:03.225Z,1.13
2022-11-21T23:48:31.156Z,1.13
2022-11-21T23:50:59.010Z,1.40
2022-11-21T23:53:26.864Z,1.00
2022-11-21T23:55:54.826Z,1.30
2022-11-21T23:58:22.699Z,1.27
